createdAt,value
2023-01-06T00:04:51.076Z,13.13
2023-01-06T00:07:17.580Z,7.75
2023-01-06T00:09:44.058Z,12.77
2023-01-06T00:12:10.578Z,11.27
2023-01-06T00:14:37.175Z,8.27
2023-01-06T00:17:03.641Z,7.78
2023-01-06T00:19:30.188Z,8.25
2023-01-06T00:21:57.995Z,9.05
2023-01-06T00:24:24.527Z,6.43
2023-01-06T00:26:51.127Z,5.88
2023-01-06T00:29:37.821Z,7.88
2023-01-06T00:32:04.665Z,5.32
2023-01-06T00:34:31.149Z,6.70
2023-01-06T00:36:57.729Z,7.07
2023-01-06T00:39:24.461Z,6.93
2023-01-06T00:42:04.037Z,5.20
2023-01-06T00:44:40.866Z,4.60
2023-01-06T00:47:10.528Z,6.40
2023-01-06T00:49:37.049Z,7.25
2023-01-06T00:52:04.400Z,10.65
2023-01-06T00:54:31.015Z,4.95
2023-01-06T00:56:57.621Z,4.70
2023-01-06T00:59:25.273Z,7.38
2023-01-06T01:01:57.340Z,6.45
2023-01-06T01:04:25.635Z,6.40
2023-01-06T01:06:53.207Z,7.68
2023-01-06T01:09:23.222Z,5.47
2023-01-06T01:12:08.823Z,5.95
2023-01-06T01:14:36.597Z,8.30
2023-01-06T01:17:03.560Z,9.70
2023-01-06T01:19:33.282Z,5.53
2023-01-06T01:21:59.821Z,6.57
2023-01-06T01:24:26.501Z,5.43
2023-01-06T01:27:18.274Z,7.72
2023-01-06T01:29:49.069Z,6.65
2023-01-06T01:33:10.476Z,6.90
2023-01-06T01:35:53.861Z,5.60
2023-01-06T01:38:21.203Z,7.72
2023-01-06T01:41:03.964Z,6.32
2023-01-06T01:44:37.610Z,5.25
2023-01-06T01:50:54.773Z,5.30
2023-01-06T01:53:25.890Z,8.68
2023-01-06T01:55:54.982Z,6.53
2023-01-06T01:58:32.984Z,7.25
2023-01-06T02:01:12.009Z,10.35
2023-01-06T02:07:04.604Z,6.38
2023-01-06T02:21:14.584Z,11.75
2023-01-06T02:24:11.702Z,10.40
2023-01-06T02:33:21.474Z,8.40
2023-01-06T02:36:00.384Z,9.38
2023-01-06T02:38:36.050Z,7.75
2023-01-06T02:41:24.060Z,6.03
2023-01-06T02:44:16.098Z,6.40
2023-01-06T02:47:25.093Z,8.30
2023-01-06T02:50:25.177Z,8.20
2023-01-06T02:53:00.469Z,8.18
2023-01-06T02:55:42.090Z,7.00
2023-01-06T02:58:46.314Z,8.32
2023-01-06T03:01:24.595Z,10.43
2023-01-06T03:04:29.621Z,8.48
2023-01-06T03:07:18.036Z,8.38
2023-01-06T03:09:45.317Z,7.80
2023-01-06T03:24:22.874Z,7.78
2023-01-06T03:34:35.848Z,9.00
2023-01-06T03:37:18.834Z,14.27
2023-01-06T03:40:20.434Z,11.95
2023-01-06T03:43:28.163Z,7.90
2023-01-06T03:46:21.007Z,9.48
2023-01-06T03:48:52.994Z,6.80
2023-01-06T03:54:29.489Z,7.95
2023-01-06T03:57:10.859Z,8.43
2023-01-06T03:59:45.615Z,8.90
2023-01-06T04:02:12.757Z,6.85
2023-01-06T04:04:39.300Z,7.93
2023-01-06T04:07:06.071Z,11.32
2023-01-06T04:09:32.565Z,5.95
2023-01-06T04:12:17.704Z,8.05
2023-01-06T04:14:44.178Z,8.05
2023-01-06T04:17:12.895Z,11.55
2023-01-06T04:19:40.091Z,9.95
2023-01-06T04:22:06.677Z,10.63
2023-01-06T04:24:33.128Z,6.28
2023-01-06T04:26:59.682Z,7.07
2023-01-06T04:29:26.204Z,7.03
2023-01-06T04:31:52.722Z,4.97
2023-01-06T04:34:19.252Z,9.00
2023-01-06T04:36:45.976Z,8.30
2023-01-06T04:39:12.441Z,5.85
2023-01-06T04:41:38.919Z,7.85
2023-01-06T04:44:05.412Z,6.13
2023-01-06T04:46:32.098Z,7.95
2023-01-06T04:48:58.759Z,10.35
2023-01-06T04:51:25.229Z,7.25
2023-01-06T04:53:51.850Z,10.85
2023-01-06T04:56:18.317Z,11.52
2023-01-06T04:58:44.795Z,14.02
2023-01-06T05:01:13.419Z,8.40
2023-01-06T05:03:40.926Z,6.75
2023-01-06T05:06:10.052Z,6.47
2023-01-06T05:08:37.815Z,6.53
2023-01-06T05:11:13.176Z,6.45
2023-01-06T05:13:40.243Z,7.53
2023-01-06T05:16:17.593Z,8.93
2023-01-06T05:18:44.641Z,7.30
2023-01-06T05:21:11.599Z,10.57
2023-01-06T05:23:39.217Z,10.15
2023-01-06T05:26:06.445Z,9.45
2023-01-06T05:28:33.411Z,10.13
2023-01-06T05:31:05.196Z,8.05
2023-01-06T05:33:32.927Z,8.55
2023-01-06T05:36:13.184Z,8.57
2023-01-06T05:38:40.385Z,7.15
2023-01-06T05:41:07.422Z,10.52
2023-01-06T05:43:36.150Z,9.27
2023-01-06T05:46:07.360Z,9.98
2023-01-06T05:48:34.834Z,8.18
2023-01-06T05:51:03.513Z,10.02
2023-01-06T05:53:34.680Z,10.65
2023-01-06T05:56:06.348Z,14.10
2023-01-06T05:58:36.555Z,8.65
2023-01-06T06:01:04.386Z,9.18
2023-01-06T06:03:31.903Z,12.48
2023-01-06T06:06:06.427Z,11.63
2023-01-06T06:08:33.670Z,10.77
2023-01-06T06:11:04.479Z,15.02
2023-01-06T06:13:31.411Z,10.77
2023-01-06T06:16:13.178Z,10.15
2023-01-06T06:18:43.129Z,10.27
2023-01-06T06:21:15.829Z,11.52
2023-01-06T06:23:47.158Z,11.02
2023-01-06T06:26:14.530Z,9.82
2023-01-06T06:28:41.785Z,10.75
2023-01-06T06:31:14.594Z,9.80
2023-01-06T06:33:41.741Z,11.52
2023-01-06T06:36:15.819Z,13.63
2023-01-06T06:38:45.247Z,13.35
2023-01-06T06:41:15.064Z,16.30
2023-01-06T06:43:41.819Z,15.35
2023-01-06T06:46:09.006Z,13.85
2023-01-06T06:48:36.103Z,13.25
2023-01-06T06:51:11.718Z,12.18
2023-01-06T06:53:39.089Z,11.55
2023-01-06T06:56:07.955Z,16.67
2023-01-06T06:58:36.230Z,14.63
2023-01-06T07:01:12.285Z,12.52
2023-01-06T07:03:39.485Z,10.50
2023-01-06T07:06:13.173Z,12.35
2023-01-06T07:08:48.273Z,12.80
2023-01-06T07:11:15.466Z,16.92
2023-01-06T07:13:42.133Z,19.65
2023-01-06T07:16:10.880Z,13.43
2023-01-06T07:22:32.742Z,10.48
2023-01-06T07:24:59.794Z,14.70
2023-01-06T07:27:30.014Z,18.35
2023-01-06T07:30:02.822Z,15.50
2023-01-06T07:32:30.735Z,14.38
2023-01-06T07:34:57.806Z,15.95
2023-01-06T07:37:38.579Z,15.60
2023-01-06T07:43:25.643Z,17.15
2023-01-06T07:48:56.566Z,17.73
2023-01-06T07:51:23.560Z,16.88
2023-01-06T07:53:50.155Z,18.30
2023-01-06T07:56:16.810Z,21.73
2023-01-06T07:58:43.333Z,17.85
2023-01-06T08:01:10.143Z,20.00
2023-01-06T08:03:36.668Z,14.90
2023-01-06T08:06:08.447Z,17.85
2023-01-06T08:08:42.057Z,18.50
2023-01-06T08:11:11.694Z,22.77
2023-01-06T08:13:39.516Z,23.67
2023-01-06T08:16:07.804Z,24.88
2023-01-06T08:18:35.355Z,22.92
2023-01-06T08:21:03.642Z,24.02
2023-01-06T08:23:31.177Z,30.02
2023-01-06T08:26:10.099Z,24.85
2023-01-06T08:28:41.254Z,24.48
2023-01-06T08:31:12.964Z,23.73
2023-01-06T08:33:40.085Z,28.45
2023-01-06T08:36:08.629Z,24.40
2023-01-06T08:38:36.880Z,30.13
2023-01-06T08:41:04.188Z,26.27
2023-01-06T08:43:31.839Z,22.27
2023-01-06T08:46:03.354Z,27.25
2023-01-06T08:48:30.759Z,31.15
2023-01-06T08:51:11.307Z,26.92
2023-01-06T08:53:38.487Z,31.08
2023-01-06T08:56:05.945Z,30.98
2023-01-06T08:58:32.445Z,25.27
2023-01-06T09:00:59.123Z,28.55
2023-01-06T09:03:25.849Z,36.30
2023-01-06T09:05:57.033Z,31.35
2023-01-06T09:08:24.855Z,26.88
2023-01-06T09:10:54.911Z,31.77
2023-01-06T09:13:21.406Z,22.73
2023-01-06T09:15:49.129Z,30.48
2023-01-06T09:18:16.090Z,26.83
2023-01-06T09:20:42.629Z,24.88
2023-01-06T09:23:09.339Z,40.15
2023-01-06T09:25:41.887Z,28.73
2023-01-06T09:28:10.546Z,27.98
2023-01-06T09:30:37.547Z,34.38
2023-01-06T09:33:04.162Z,30.77
2023-01-06T09:35:30.629Z,30.95
2023-01-06T09:38:00.697Z,25.95
2023-01-06T09:40:55.788Z,26.52
2023-01-06T09:43:44.135Z,31.67
2023-01-06T09:46:22.934Z,34.10
2023-01-06T09:49:18.342Z,29.85
2023-01-06T09:51:45.986Z,27.15
2023-01-06T09:54:26.411Z,26.05
2023-01-06T09:57:10.191Z,29.45
2023-01-06T10:00:02.034Z,25.98
2023-01-06T10:02:41.745Z,22.58
2023-01-06T10:05:47.267Z,21.38
2023-01-06T10:08:20.667Z,24.83
2023-01-06T10:11:17.132Z,23.45
2023-01-06T10:13:57.642Z,25.70
2023-01-06T10:16:45.674Z,24.85
2023-01-06T10:19:34.348Z,26.88
2023-01-06T10:22:32.271Z,24.50
2023-01-06T10:25:23.157Z,21.83
2023-01-06T10:28:14.516Z,21.67
2023-01-06T10:30:52.518Z,26.10
2023-01-06T10:33:28.275Z,23.38
2023-01-06T10:36:00.691Z,19.08
2023-01-06T10:39:03.085Z,18.63
2023-01-06T10:42:17.704Z,19.38
2023-01-06T10:44:44.216Z,18.83
2023-01-06T10:47:24.917Z,21.05
2023-01-06T10:49:51.933Z,16.15
2023-01-06T10:52:32.322Z,18.38
2023-01-06T10:55:04.480Z,16.98
2023-01-06T10:57:36.186Z,16.48
2023-01-06T11:02:46.872Z,14.90
2023-01-06T11:05:16.063Z,15.10
2023-01-06T11:07:57.511Z,20.55
2023-01-06T11:10:39.072Z,15.20
2023-01-06T11:13:07.628Z,13.95
2023-01-06T11:15:47.777Z,17.63
2023-01-06T11:18:21.428Z,12.77
2023-01-06T11:21:18.700Z,14.10
2023-01-06T11:23:48.096Z,17.92
2023-01-06T11:26:21.600Z,16.90
2023-01-06T11:28:55.419Z,14.50
2023-01-06T11:31:26.001Z,17.75
2023-01-06T11:33:55.377Z,16.92
2023-01-06T11:36:24.168Z,14.38
2023-01-06T11:39:02.688Z,16.30
2023-01-06T11:41:38.140Z,16.92
2023-01-06T11:44:10.694Z,14.43
2023-01-06T11:46:40.183Z,15.23
2023-01-06T11:49:35.458Z,13.70
2023-01-06T11:55:40.955Z,13.02
2023-01-06T11:58:19.027Z,12.50
2023-01-06T12:00:50.230Z,13.25
2023-01-06T12:03:22.126Z,13.70
2023-01-06T12:05:58.380Z,15.98
2023-01-06T12:08:35.275Z,13.80
2023-01-06T12:11:11.208Z,14.93
2023-01-06T12:13:44.537Z,13.20
2023-01-06T12:16:23.712Z,12.00
2023-01-06T12:21:30.218Z,9.50
2023-01-06T12:24:00.022Z,9.80
2023-01-06T12:26:28.072Z,10.75
2023-01-06T12:28:57.404Z,10.30
2023-01-06T12:31:42.995Z,9.48
2023-01-06T12:34:32.131Z,9.45
2023-01-06T12:37:09.267Z,10.93
2023-01-06T12:39:51.164Z,7.00
2023-01-06T12:42:33.177Z,6.97
2023-01-06T12:45:19.545Z,8.45
2023-01-06T12:47:58.098Z,7.75
2023-01-06T12:50:36.181Z,6.43
2023-01-06T12:53:21.378Z,7.50
2023-01-06T12:56:15.877Z,5.40
2023-01-06T12:59:23.747Z,7.80
2023-01-06T13:02:01.649Z,6.75
2023-01-06T13:07:33.786Z,7.68
2023-01-06T13:10:26.867Z,8.45
2023-01-06T13:13:12.087Z,6.70
2023-01-06T13:15:43.041Z,6.90
2023-01-06T13:18:29.079Z,7.18
2023-01-06T13:21:15.865Z,8.30
2023-01-06T13:24:11.422Z,8.80
2023-01-06T13:26:55.514Z,7.07
2023-01-06T13:29:39.311Z,5.18
2023-01-06T13:32:58.955Z,6.22
2023-01-06T13:35:35.895Z,5.05
2023-01-06T13:38:25.408Z,3.92
2023-01-06T13:40:53.522Z,6.50
2023-01-06T13:43:29.673Z,4.45
2023-01-06T13:46:00.388Z,5.28
2023-01-06T13:48:32.688Z,3.92
2023-01-06T13:51:03.567Z,5.20
2023-01-06T13:53:37.425Z,5.32
2023-01-06T13:56:12.992Z,5.10
2023-01-06T13:58:46.716Z,5.03
2023-01-06T14:01:31.933Z,3.40
2023-01-06T14:04:39.130Z,5.78
2023-01-06T14:07:05.745Z,4.80
2023-01-06T14:09:36.348Z,4.28
2023-01-06T14:12:14.727Z,4.25
2023-01-06T14:14:44.339Z,6.07
2023-01-06T14:17:39.948Z,3.67
2023-01-06T14:20:18.712Z,4.05
2023-01-06T14:22:57.546Z,6.43
2023-01-06T14:25:25.021Z,5.43
2023-01-06T14:27:53.675Z,7.05
2023-01-06T14:30:33.269Z,5.10
2023-01-06T14:33:03.106Z,5.10
2023-01-06T14:35:44.099Z,4.78
2023-01-06T14:38:20.052Z,4.25
2023-01-06T14:41:00.121Z,5.03
2023-01-06T14:43:34.702Z,4.80
2023-01-06T14:46:15.756Z,5.05
2023-01-06T14:48:47.173Z,4.32
2023-01-06T14:51:18.123Z,4.80
2023-01-06T14:53:50.814Z,3.67
2023-01-06T14:56:20.119Z,6.00
2023-01-06T14:58:46.597Z,5.43
2023-01-06T15:01:32.567Z,5.43
2023-01-06T15:04:02.108Z,5.57
2023-01-06T15:06:29.575Z,6.18
2023-01-06T15:09:10.662Z,6.47
2023-01-06T15:11:41.420Z,9.00
2023-01-06T15:14:31.516Z,11.25
2023-01-06T15:17:01.201Z,7.53
2023-01-06T15:19:28.708Z,6.60
2023-01-06T15:21:55.365Z,10.32
2023-01-06T15:24:24.998Z,8.82
2023-01-06T15:26:53.369Z,9.52
2023-01-06T15:29:22.482Z,8.02
2023-01-06T15:31:51.038Z,8.40
2023-01-06T15:34:23.168Z,8.60
2023-01-06T15:36:53.198Z,8.85
2023-01-06T15:39:26.849Z,9.88
2023-01-06T15:41:54.755Z,6.13
2023-01-06T15:44:25.666Z,5.95
2023-01-06T15:46:56.794Z,7.20
2023-01-06T15:49:27.829Z,15.00
2023-01-06T15:52:07.458Z,16.55
2023-01-06T15:54:37.792Z,15.02
2023-01-06T15:57:16.557Z,10.98
2023-01-06T15:59:53.889Z,10.90
2023-01-06T16:02:24.899Z,15.63
2023-01-06T16:04:51.710Z,5.72
2023-01-06T16:07:40.958Z,7.15
2023-01-06T16:10:34.128Z,7.32
2023-01-06T16:13:28.465Z,6.28
2023-01-06T16:16:01.846Z,7.57
2023-01-06T16:18:31.348Z,6.63
2023-01-06T16:21:00.113Z,7.45
2023-01-06T16:23:31.279Z,6.43
2023-01-06T16:26:17.689Z,7.80
2023-01-06T16:28:51.244Z,6.63
2023-01-06T16:31:36.632Z,6.68
2023-01-06T16:34:16.839Z,5.68
2023-01-06T16:36:43.533Z,6.57
2023-01-06T16:39:10.027Z,6.63
2023-01-06T16:41:36.876Z,10.52
2023-01-06T16:44:03.510Z,12.80
2023-01-06T16:46:30.112Z,9.00
2023-01-06T16:49:05.149Z,8.95
2023-01-06T16:51:31.920Z,9.95
2023-01-06T16:53:58.865Z,7.78
2023-01-06T16:56:25.332Z,7.97
2023-01-06T16:58:56.023Z,9.43
2023-01-06T17:01:23.661Z,10.55
2023-01-06T17:03:58.426Z,9.80
2023-01-06T17:06:27.562Z,8.90
2023-01-06T17:08:56.607Z,8.98
2023-01-06T17:11:25.235Z,8.52
2023-01-06T17:14:03.569Z,8.68
2023-01-06T17:16:39.193Z,15.85
2023-01-06T17:19:24.305Z,11.13
2023-01-06T17:22:15.340Z,16.23
2023-01-06T17:24:41.920Z,15.48
2023-01-06T17:27:26.579Z,16.85
2023-01-06T17:29:54.479Z,19.17
2023-01-06T17:32:42.582Z,12.65
2023-01-06T17:35:27.424Z,11.38
2023-01-06T17:37:56.128Z,10.32
2023-01-06T17:40:34.005Z,10.38
2023-01-06T17:43:09.927Z,10.80
2023-01-06T17:45:37.577Z,10.88
2023-01-06T17:48:11.702Z,13.43
2023-01-06T17:50:49.813Z,15.52
2023-01-06T17:56:07.576Z,16.83
2023-01-06T17:58:38.095Z,13.35
2023-01-06T18:01:08.501Z,15.95
2023-01-06T18:03:38.199Z,12.23
2023-01-06T18:06:21.340Z,11.27
2023-01-06T18:08:53.368Z,11.73
2023-01-06T18:11:34.991Z,11.18
2023-01-06T18:14:15.609Z,13.00
2023-01-06T18:16:46.007Z,10.73
2023-01-06T18:19:49.859Z,10.13
2023-01-06T18:22:20.166Z,9.48
2023-01-06T18:24:48.527Z,10.75
2023-01-06T18:27:22.815Z,9.88
2023-01-06T18:29:52.940Z,11.23
2023-01-06T18:32:26.035Z,10.98
2023-01-06T18:34:55.292Z,10.15
2023-01-06T18:37:24.796Z,10.18
2023-01-06T18:39:56.494Z,16.80
2023-01-06T18:42:29.291Z,17.13
2023-01-06T18:45:09.067Z,21.48
2023-01-06T18:47:38.120Z,24.75
2023-01-06T18:50:25.648Z,18.65
2023-01-06T18:52:54.348Z,25.60
2023-01-06T18:55:38.165Z,27.13
2023-01-06T18:58:33.046Z,26.38
2023-01-06T19:01:02.840Z,26.85
2023-01-06T19:03:32.224Z,27.67
2023-01-06T19:06:10.872Z,22.40
2023-01-06T19:08:45.659Z,24.08
2023-01-06T19:11:16.502Z,24.77
2023-01-06T19:13:45.514Z,31.48
2023-01-06T19:16:38.218Z,34.70
2023-01-06T19:19:14.123Z,38.95
2023-01-06T19:21:44.011Z,64.03
2023-01-06T19:24:29.123Z,36.28
2023-01-06T19:27:00.017Z,56.08
2023-01-06T19:29:32.329Z,76.50
2023-01-06T19:32:02.428Z,47.53
2023-01-06T19:34:31.430Z,47.75
2023-01-06T19:36:58.421Z,57.58
2023-01-06T19:39:40.737Z,33.50
2023-01-06T19:42:19.406Z,25.45
2023-01-06T19:44:49.799Z,20.92
2023-01-06T19:47:26.056Z,24.45
2023-01-06T19:49:56.228Z,26.52
2023-01-06T19:52:33.812Z,22.75
2023-01-06T19:55:23.672Z,19.67
2023-01-06T19:57:56.570Z,21.48
2023-01-06T20:00:39.085Z,16.92
2023-01-06T20:03:24.898Z,22.48
2023-01-06T20:05:51.847Z,26.02
2023-01-06T20:08:18.573Z,26.77
2023-01-06T20:10:45.587Z,21.20
2023-01-06T20:13:12.246Z,18.08
2023-01-06T20:15:38.860Z,20.40
2023-01-06T20:18:05.353Z,23.58
2023-01-06T20:20:35.709Z,16.48
2023-01-06T20:23:02.435Z,20.77
2023-01-06T20:25:28.975Z,19.92
2023-01-06T20:27:55.743Z,20.45
2023-01-06T20:30:22.443Z,20.80
2023-01-06T20:32:52.498Z,20.58
2023-01-06T20:35:20.253Z,19.48
2023-01-06T20:37:46.765Z,19.25
2023-01-06T20:40:22.538Z,19.70
2023-01-06T20:42:49.558Z,17.02
2023-01-06T20:45:19.045Z,17.92
2023-01-06T20:47:45.932Z,17.70
2023-01-06T20:50:14.934Z,14.60
2023-01-06T20:52:45.514Z,20.35
2023-01-06T20:55:16.111Z,18.38
2023-01-06T20:57:42.755Z,17.08
2023-01-06T21:00:11.169Z,21.15
2023-01-06T21:02:40.879Z,18.70
2023-01-06T21:05:08.214Z,19.42
2023-01-06T21:07:38.092Z,14.02
2023-01-06T21:10:05.047Z,16.58
2023-01-06T21:12:40.894Z,20.05
2023-01-06T21:15:12.769Z,16.17
2023-01-06T21:20:07.095Z,18.88
2023-01-06T21:22:33.830Z,18.17
2023-01-06T21:25:03.235Z,16.35
2023-01-06T21:27:29.867Z,18.80
2023-01-06T21:29:57.853Z,19.17
2023-01-06T21:32:24.340Z,16.98
2023-01-06T21:34:51.696Z,19.13
2023-01-06T21:37:18.415Z,22.38
2023-01-06T21:39:47.768Z,22.90
2023-01-06T21:42:46.756Z,20.63
2023-01-06T21:45:13.741Z,21.48
2023-01-06T21:47:40.583Z,22.33
2023-01-06T21:50:12.942Z,20.23
2023-01-06T21:52:42.382Z,16.45
2023-01-06T21:55:09.534Z,20.15
2023-01-06T21:57:38.746Z,20.60
2023-01-06T22:00:07.011Z,18.27
2023-01-06T22:02:37.950Z,19.63
2023-01-06T22:05:08.246Z,16.73
2023-01-06T22:07:39.881Z,18.92
2023-01-06T22:10:08.446Z,18.80
2023-01-06T22:12:36.875Z,18.92
2023-01-06T22:15:05.323Z,20.27
2023-01-06T22:17:32.088Z,22.25
2023-01-06T22:19:58.887Z,26.75
2023-01-06T22:22:25.428Z,21.42
2023-01-06T22:24:55.057Z,28.92
2023-01-06T22:27:26.046Z,21.88
2023-01-06T22:29:52.837Z,24.15
2023-01-06T22:32:19.447Z,26.63
2023-01-06T22:34:46.192Z,23.20
2023-01-06T22:37:12.684Z,22.20
2023-01-06T22:39:39.217Z,24.95
2023-01-06T22:42:05.715Z,23.48
2023-01-06T22:44:32.538Z,29.00
2023-01-06T22:46:59.071Z,29.13
2023-01-06T22:49:25.988Z,114.38
2023-01-06T22:51:52.498Z,70.38
2023-01-06T22:54:25.794Z,40.55
2023-01-06T22:56:53.680Z,38.53
2023-01-06T22:59:20.311Z,29.85
2023-01-06T23:01:47.273Z,23.45
2023-01-06T23:04:14.947Z,30.90
2023-01-06T23:06:41.486Z,28.67
2023-01-06T23:09:08.102Z,20.38
2023-01-06T23:11:41.603Z,23.77
2023-01-06T23:14:09.529Z,28.50
2023-01-06T23:16:47.463Z,21.63
2023-01-06T23:20:26.852Z,24.88
2023-01-06T23:22:53.386Z,23.98
2023-01-06T23:25:19.849Z,26.88
2023-01-06T23:27:46.702Z,25.63
2023-01-06T23:30:13.798Z,24.50
2023-01-06T23:32:40.256Z,24.70
2023-01-06T23:35:07.015Z,22.83
2023-01-06T23:37:34.139Z,20.63
2023-01-06T23:40:00.852Z,22.88
2023-01-06T23:42:28.756Z,25.15
2023-01-06T23:44:56.804Z,23.30
2023-01-06T23:47:23.284Z,21.33
2023-01-06T23:49:49.966Z,21.90
2023-01-06T23:52:16.476Z,20.73
2023-01-06T23:54:43.080Z,26.20
2023-01-06T23:57:09.809Z,27.30
2023-01-06T23:59:36.312Z,26.35
